createdAt,value
2022-09-05T00:01:37.812Z,36.70
2022-09-05T00:04:24.749Z,41.53
2022-09-05T00:07:03.491Z,36.67
2022-09-05T00:09:56.182Z,36.97
2022-09-05T00:12:25.750Z,35.50
2022-09-05T00:15:16.523Z,34.93
2022-09-05T00:19:46.563Z,35.70
2022-09-05T00:24:30.375Z,36.47
2022-09-05T00:24:30.499Z,34.67
2022-09-05T00:27:04.854Z,34.13
2022-09-05T00:31:08.950Z,33.93
2022-09-05T00:33:16.821Z,36.80
2022-09-05T00:36:10.491Z,31.07
2022-09-05T00:38:42.094Z,35.03
2022-09-05T00:41:13.994Z,37.47
2022-09-05T00:43:44.842Z,32.97
2022-09-05T00:46:17.407Z,31.77
2022-09-05T00:48:51.243Z,55.90
2022-09-05T00:51:35.507Z,35.73
2022-09-05T00:54:41.001Z,37.53
2022-09-05T00:57:33.171Z,37.70
2022-09-05T01:00:19.652Z,33.43
2022-09-05T01:03:27.957Z,30.10
2022-09-05T01:06:19.173Z,34.40
2022-09-05T01:09:18.910Z,30.03
2022-09-05T01:12:02.124Z,35.47
2022-09-05T01:14:54.974Z,38.20
2022-09-05T01:17:33.634Z,33.50
2022-09-05T01:20:19.059Z,31.53
2022-09-05T01:23:25.283Z,39.87
2022-09-05T01:26:14.533Z,45.33
2022-09-05T01:29:17.872Z,30.73
2022-09-05T01:31:50.289Z,33.10
2022-09-05T01:34:32.073Z,31.47
2022-09-05T01:37:06.295Z,30.43
2022-09-05T01:40:14.413Z,31.93
2022-09-05T01:42:44.052Z,36.70
2022-09-05T01:45:21.674Z,35.07
2022-09-05T01:48:04.320Z,35.33
2022-09-05T01:50:45.377Z,41.87
2022-09-05T01:53:26.456Z,34.40
2022-09-05T01:56:26.111Z,34.60
2022-09-05T01:59:09.272Z,35.07
2022-09-05T02:01:52.256Z,33.90
2022-09-05T02:04:48.852Z,40.30
2022-09-05T02:07:31.000Z,43.43
2022-09-05T02:10:27.835Z,34.20
2022-09-05T02:13:03.554Z,34.13
2022-09-05T02:15:55.248Z,35.53
2022-09-05T02:18:44.502Z,32.10
2022-09-05T02:21:22.178Z,35.90
2022-09-05T02:24:02.495Z,35.73
2022-09-05T02:26:37.128Z,38.13
2022-09-05T02:29:29.532Z,36.40
2022-09-05T02:32:02.941Z,32.30
2022-09-05T02:34:41.329Z,32.13
2022-09-05T02:37:15.478Z,34.30
2022-09-05T02:45:07.675Z,33.00
2022-09-05T02:45:18.589Z,32.60
2022-09-05T02:45:42.356Z,29.40
2022-09-05T02:48:20.838Z,31.67
2022-09-05T02:57:27.665Z,34.67
2022-09-05T02:57:34.570Z,30.93
2022-09-05T02:57:45.820Z,32.70
2022-09-05T03:00:03.938Z,38.23
2022-09-05T03:02:42.820Z,39.63
2022-09-05T03:05:17.220Z,37.23
2022-09-05T03:08:07.096Z,38.07
2022-09-05T03:11:20.307Z,36.00
2022-09-05T03:14:15.063Z,41.20
2022-09-05T03:17:16.887Z,36.10
2022-09-05T03:20:17.124Z,32.03
2022-09-05T03:23:23.419Z,50.83
2022-09-05T03:26:29.358Z,51.17
2022-09-05T03:29:33.954Z,46.30
2022-09-05T03:32:41.994Z,32.10
2022-09-05T03:35:48.746Z,41.53
2022-09-05T03:39:00.198Z,53.27
2022-09-05T03:41:40.986Z,36.70
2022-09-05T03:44:37.979Z,38.63
2022-09-05T03:47:35.655Z,34.93
2022-09-05T03:54:17.079Z,36.80
2022-09-05T03:57:17.336Z,38.13
2022-09-05T03:57:21.025Z,35.17
2022-09-05T04:00:07.746Z,32.13
2022-09-05T04:08:09.141Z,35.13
2022-09-05T04:08:17.181Z,34.90
2022-09-05T04:08:46.457Z,33.90
2022-09-05T04:11:19.040Z,39.13
2022-09-05T04:13:52.225Z,39.20
2022-09-05T04:16:26.487Z,38.87
2022-09-05T04:18:57.671Z,39.27
2022-09-05T04:21:30.338Z,38.90
2022-09-05T04:24:08.089Z,36.70
2022-09-05T04:27:08.417Z,40.43
2022-09-05T04:29:50.113Z,34.63
2022-09-05T04:32:29.535Z,38.47
2022-09-05T04:35:20.739Z,37.87
2022-09-05T04:37:58.684Z,47.80
2022-09-05T04:40:43.739Z,50.35
2022-09-05T04:43:17.408Z,42.20
2022-09-05T04:45:50.896Z,40.50
2022-09-05T04:48:23.457Z,51.93
2022-09-05T04:51:07.340Z,42.93
2022-09-05T04:53:46.227Z,46.30
2022-09-05T04:56:21.210Z,45.43
2022-09-05T05:01:14.490Z,47.70
2022-09-05T05:06:08.726Z,56.80
2022-09-05T05:06:16.273Z,52.57
2022-09-05T05:07:32.221Z,58.87
2022-09-05T05:11:30.303Z,58.97
2022-09-05T05:17:56.599Z,57.70
2022-09-05T05:18:07.470Z,55.50
2022-09-05T05:18:59.602Z,47.20
2022-09-05T05:21:34.181Z,49.90
2022-09-05T05:24:10.623Z,67.60
2022-09-05T05:26:46.000Z,44.23
2022-09-05T05:29:24.617Z,49.97
2022-09-05T05:31:54.844Z,53.03
2022-09-05T05:34:27.542Z,46.80
2022-09-05T05:37:00.711Z,51.90
2022-09-05T05:39:31.009Z,50.13
2022-09-05T05:42:06.830Z,57.40
2022-09-05T05:44:53.811Z,51.93
2022-09-05T05:47:31.324Z,49.80
2022-09-05T05:50:11.240Z,55.13
2022-09-05T05:53:01.287Z,45.23
2022-09-05T05:55:53.510Z,46.90
2022-09-05T05:58:45.422Z,52.23
2022-09-05T06:02:10.496Z,50.40
2022-09-05T06:05:23.885Z,48.17
2022-09-05T06:11:00.967Z,49.27
2022-09-05T06:14:55.643Z,48.37
2022-09-05T06:15:26.640Z,48.90
2022-09-05T06:18:25.226Z,46.60
2022-09-05T06:22:10.812Z,44.93
2022-09-05T06:24:58.755Z,46.90
2022-09-05T06:28:17.526Z,49.10
2022-09-05T06:31:28.977Z,49.60
2022-09-05T06:34:08.242Z,48.97
2022-09-05T06:37:03.708Z,45.93
2022-09-05T06:39:49.811Z,47.63
2022-09-05T06:42:42.993Z,40.90
2022-09-05T06:45:32.604Z,46.03
2022-09-05T06:48:11.014Z,50.47
2022-09-05T06:51:21.328Z,44.20
2022-09-05T06:54:24.584Z,46.30
2022-09-05T06:57:14.692Z,53.40
2022-09-05T07:00:04.684Z,50.50
2022-09-05T07:02:58.323Z,45.40
2022-09-05T07:05:39.774Z,48.60
2022-09-05T07:08:34.574Z,45.60
2022-09-05T07:11:16.750Z,45.13
2022-09-05T07:13:56.995Z,50.30
2022-09-05T07:16:40.941Z,62.63
2022-09-05T07:19:31.619Z,51.13
2022-09-05T07:22:44.513Z,48.00
2022-09-05T07:25:08.965Z,45.97
2022-09-05T07:28:26.733Z,43.50
2022-09-05T07:30:33.096Z,51.13
2022-09-05T07:33:03.887Z,46.33
2022-09-05T07:35:42.413Z,42.07
2022-09-05T07:38:15.953Z,62.07
2022-09-05T07:40:52.085Z,61.07
2022-09-05T07:43:26.690Z,54.90
2022-09-05T07:46:11.307Z,46.27
2022-09-05T07:48:44.517Z,50.00
2022-09-05T07:55:18.849Z,47.63
2022-09-05T07:56:55.763Z,60.10
2022-09-05T07:57:25.482Z,49.13
2022-09-05T08:00:05.240Z,46.53
2022-09-05T08:02:33.851Z,55.00
2022-09-05T08:05:05.139Z,53.47
2022-09-05T08:07:48.926Z,51.00
2022-09-05T08:10:35.638Z,49.73
2022-09-05T08:13:24.788Z,44.93
2022-09-05T08:16:04.306Z,49.73
2022-09-05T08:18:45.766Z,46.70
2022-09-05T08:21:27.097Z,50.40
2022-09-05T08:24:07.003Z,55.83
2022-09-05T08:26:47.237Z,45.07
2022-09-05T08:29:27.208Z,48.60
2022-09-05T08:32:03.846Z,48.23
2022-09-05T08:34:45.108Z,40.47
2022-09-05T08:37:21.264Z,54.07
2022-09-05T08:40:09.659Z,45.80
2022-09-05T08:42:55.801Z,49.90
2022-09-05T08:46:45.844Z,42.70
2022-09-05T08:48:42.383Z,44.43
2022-09-05T08:51:27.032Z,43.63
2022-09-05T08:54:17.310Z,43.10
2022-09-05T08:56:55.288Z,44.47
2022-09-05T09:00:19.877Z,51.57
2022-09-05T09:03:04.322Z,40.63
2022-09-05T09:06:14.870Z,45.43
2022-09-05T09:09:06.000Z,47.73
2022-09-05T09:11:39.345Z,40.90
2022-09-05T09:14:37.603Z,40.10
2022-09-05T09:17:16.144Z,39.03
2022-09-05T09:19:51.967Z,36.67
2022-09-05T09:22:43.246Z,36.53
2022-09-05T09:25:18.411Z,31.10
2022-09-05T09:28:47.728Z,33.07
2022-09-05T09:31:50.108Z,31.57
2022-09-05T09:34:47.536Z,35.30
2022-09-05T09:37:53.397Z,36.87
2022-09-05T09:40:37.575Z,27.90
2022-09-05T09:43:17.583Z,35.70
2022-09-05T09:46:15.528Z,29.17
2022-09-05T09:49:22.988Z,28.20
2022-09-05T09:52:24.542Z,25.93
2022-09-05T09:55:39.092Z,27.83
2022-09-05T09:59:03.376Z,25.17
2022-09-05T10:01:39.497Z,25.60
2022-09-05T10:10:33.655Z,24.10
2022-09-05T10:10:46.651Z,24.73
2022-09-05T10:11:51.918Z,22.60
2022-09-05T10:14:49.113Z,21.77
2022-09-05T10:17:45.553Z,22.57
2022-09-05T10:20:56.842Z,19.70
2022-09-05T10:24:10.950Z,30.57
2022-09-05T10:27:13.056Z,21.70
2022-09-05T10:30:08.773Z,35.37
2022-09-05T10:35:11.523Z,18.30
2022-09-05T10:35:37.574Z,20.93
2022-09-05T10:38:12.260Z,19.53
2022-09-05T10:41:20.229Z,22.30
2022-09-05T10:43:36.128Z,22.97
2022-09-05T10:46:39.701Z,25.67
2022-09-05T10:49:09.367Z,18.60
2022-09-05T10:51:45.574Z,17.00
2022-09-05T10:54:30.451Z,23.03
2022-09-05T10:57:08.823Z,20.47
2022-09-05T11:02:20.362Z,18.43
2022-09-05T11:02:49.109Z,16.83
2022-09-05T11:05:24.653Z,20.70
2022-09-05T11:08:06.413Z,14.03
2022-09-05T11:10:38.269Z,16.80
2022-09-05T11:13:24.489Z,15.83
2022-09-05T11:16:13.463Z,17.13
2022-09-05T11:18:57.270Z,13.47
2022-09-05T11:21:47.686Z,19.80
2022-09-05T11:24:30.207Z,12.10
2022-09-05T11:27:24.914Z,12.60
2022-09-05T11:29:54.876Z,12.40
2022-09-05T11:39:50.924Z,11.43
2022-09-05T11:39:51.656Z,11.13
2022-09-05T11:39:51.793Z,10.67
2022-09-05T11:42:37.015Z,13.00
2022-09-05T11:45:37.905Z,13.03
2022-09-05T11:48:38.068Z,9.63
2022-09-05T11:51:45.183Z,9.37
2022-09-05T11:55:02.730Z,9.60
2022-09-05T11:57:44.632Z,8.40
2022-09-05T12:00:32.066Z,11.27
2022-09-05T12:03:57.587Z,9.67
2022-09-05T12:06:57.242Z,13.23
2022-09-05T12:09:38.494Z,9.30
2022-09-05T12:12:38.859Z,12.20
2022-09-05T12:15:24.638Z,12.10
2022-09-05T12:18:19.568Z,9.67
2022-09-05T12:21:02.579Z,9.80
2022-09-05T12:27:42.468Z,9.93
2022-09-05T12:29:36.150Z,9.80
2022-09-05T12:33:48.023Z,6.97
2022-09-05T12:36:13.011Z,13.30
2022-09-05T12:40:56.916Z,11.60
2022-09-05T12:41:44.373Z,11.80
2022-09-05T12:42:10.288Z,12.07
2022-09-05T12:44:40.933Z,13.70
2022-09-05T12:47:17.159Z,9.60
2022-09-05T12:50:02.985Z,10.53
2022-09-05T12:52:42.755Z,10.50
2022-09-05T12:55:20.476Z,11.40
2022-09-05T13:03:02.201Z,9.53
2022-09-05T13:03:13.208Z,9.07
2022-09-05T13:03:48.522Z,14.07
2022-09-05T13:06:30.859Z,11.00
2022-09-05T13:09:06.948Z,7.47
2022-09-05T13:14:50.392Z,9.03
2022-09-05T13:14:58.826Z,10.10
2022-09-05T13:17:44.190Z,8.57
2022-09-05T13:20:18.882Z,8.80
2022-09-05T13:22:50.503Z,9.90
2022-09-05T13:25:26.952Z,8.93
2022-09-05T13:28:01.998Z,7.53
2022-09-05T13:32:46.963Z,17.57
2022-09-05T13:38:11.856Z,22.73
2022-09-05T13:38:15.896Z,18.73
2022-09-05T13:39:13.379Z,11.90
2022-09-05T13:41:46.495Z,14.87
2022-09-05T13:44:27.393Z,12.17
2022-09-05T13:47:02.532Z,10.90
2022-09-05T13:49:44.707Z,11.40
2022-09-05T13:52:28.026Z,11.87
2022-09-05T13:55:12.934Z,8.03
2022-09-05T13:57:44.608Z,7.50
2022-09-05T14:00:51.213Z,9.00
2022-09-05T14:03:55.656Z,8.60
2022-09-05T14:10:17.055Z,15.17
2022-09-05T14:12:49.685Z,11.13
2022-09-05T14:15:37.655Z,9.27
2022-09-05T14:18:20.088Z,11.07
2022-09-05T14:21:13.210Z,8.13
2022-09-05T14:23:53.726Z,6.70
2022-09-05T14:26:31.734Z,20.40
2022-09-05T14:29:06.956Z,8.40
2022-09-05T14:35:10.883Z,9.43
2022-09-05T14:37:59.994Z,9.10
2022-09-05T14:38:09.425Z,7.60
2022-09-05T14:41:23.623Z,10.00
2022-09-05T14:44:30.507Z,7.50
2022-09-05T14:47:41.192Z,7.93
2022-09-05T14:50:38.768Z,12.33
2022-09-05T14:57:23.233Z,9.40
2022-09-05T15:02:50.940Z,8.00
2022-09-05T15:02:52.290Z,8.50
2022-09-05T15:04:55.604Z,6.77
2022-09-05T15:07:27.510Z,7.60
2022-09-05T15:12:18.700Z,8.57
2022-09-05T15:13:16.849Z,6.93
2022-09-05T15:16:02.048Z,10.13
2022-09-05T15:18:33.093Z,8.03
2022-09-05T15:21:33.626Z,6.87
2022-09-05T15:24:21.265Z,8.87
2022-09-05T15:26:53.327Z,9.70
2022-09-05T15:29:24.995Z,10.63
2022-09-05T15:31:59.385Z,7.10
2022-09-05T15:34:38.977Z,6.90
2022-09-05T15:37:24.266Z,7.43
2022-09-05T15:40:12.306Z,6.07
2022-09-05T15:42:55.063Z,7.73
2022-09-05T15:45:26.494Z,7.53
2022-09-05T15:48:16.404Z,8.00
2022-09-05T15:50:50.073Z,9.20
2022-09-05T15:53:25.452Z,7.70
2022-09-05T15:56:00.892Z,11.13
2022-09-05T15:58:53.204Z,6.40
2022-09-05T16:01:45.051Z,8.70
2022-09-05T16:10:27.679Z,8.30
2022-09-05T16:10:37.859Z,11.43
2022-09-05T16:10:46.859Z,8.30
2022-09-05T16:13:09.553Z,9.10
2022-09-05T16:21:51.315Z,8.50
2022-09-05T16:23:24.301Z,8.80
2022-09-05T16:23:25.287Z,8.37
2022-09-05T16:24:24.893Z,8.00
2022-09-05T16:27:11.286Z,7.40
2022-09-05T16:29:46.302Z,12.70
2022-09-05T16:32:23.075Z,9.73
2022-09-05T16:34:56.734Z,16.50
2022-09-05T16:37:31.966Z,11.23
2022-09-05T16:40:07.334Z,10.97
2022-09-05T16:42:46.974Z,8.53
2022-09-05T16:45:25.887Z,12.67
2022-09-05T16:48:15.366Z,11.70
2022-09-05T16:50:48.063Z,14.70
2022-09-05T16:53:32.113Z,19.63
2022-09-05T16:56:05.265Z,15.67
2022-09-05T16:58:37.307Z,16.50
2022-09-05T17:01:24.539Z,10.80
2022-09-05T17:03:56.697Z,11.70
2022-09-05T17:06:37.208Z,10.20
2022-09-05T17:09:19.903Z,15.73
2022-09-05T17:12:00.906Z,9.20
2022-09-05T17:14:35.302Z,12.00
2022-09-05T17:17:20.262Z,14.47
2022-09-05T17:20:06.214Z,10.60
2022-09-05T17:28:17.691Z,15.03
2022-09-05T17:29:29.830Z,14.10
2022-09-05T17:29:36.338Z,9.80
2022-09-05T17:31:58.495Z,12.87
2022-09-05T17:35:18.138Z,11.60
2022-09-05T17:38:33.495Z,19.27
2022-09-05T17:41:16.112Z,9.30
2022-09-05T17:43:48.897Z,10.20
2022-09-05T17:46:23.532Z,13.60
2022-09-05T17:49:18.004Z,14.57
2022-09-05T17:52:28.239Z,15.13
2022-09-05T17:54:59.601Z,10.07
2022-09-05T17:57:42.075Z,18.73
2022-09-05T18:00:45.999Z,13.33
2022-09-05T18:04:18.011Z,14.90
2022-09-05T18:07:00.462Z,15.77
2022-09-05T18:13:31.735Z,10.40
2022-09-05T18:16:11.018Z,14.13
2022-09-05T18:19:27.911Z,15.70
2022-09-05T18:21:49.670Z,27.93
2022-09-05T18:24:32.609Z,18.40
2022-09-05T18:27:39.376Z,16.10
2022-09-05T18:30:06.212Z,15.50
2022-09-05T18:32:48.105Z,16.70
2022-09-05T18:35:28.005Z,17.30
2022-09-05T18:38:50.315Z,22.50
2022-09-05T18:41:21.684Z,22.13
2022-09-05T18:44:13.367Z,14.90
2022-09-05T18:46:53.097Z,15.80
2022-09-05T18:50:25.638Z,12.40
2022-09-05T18:52:23.842Z,10.43
2022-09-05T18:56:08.880Z,10.70
2022-09-05T18:57:51.358Z,15.43
2022-09-05T19:00:35.203Z,9.83
2022-09-05T19:03:25.392Z,9.67
2022-09-05T19:06:35.155Z,11.20
2022-09-05T19:08:57.010Z,11.87
2022-09-05T19:11:30.620Z,10.57
2022-09-05T19:14:26.079Z,10.77
2022-09-05T19:16:51.197Z,10.07
2022-09-05T19:19:24.297Z,10.73
2022-09-05T19:22:09.070Z,10.97
2022-09-05T19:24:44.962Z,13.07
2022-09-05T19:30:00.429Z,10.80
2022-09-05T19:36:47.176Z,16.77
2022-09-05T19:36:49.131Z,14.70
2022-09-05T19:36:59.028Z,14.40
2022-09-05T19:39:18.298Z,13.70
2022-09-05T19:47:34.564Z,11.10
2022-09-05T19:47:47.966Z,11.23
2022-09-05T19:47:50.192Z,12.00
2022-09-05T19:50:09.149Z,11.73
2022-09-05T19:52:40.098Z,12.40
2022-09-05T19:55:21.832Z,12.40
2022-09-05T19:58:18.368Z,11.10
2022-09-05T20:00:41.987Z,10.57
2022-09-05T20:03:21.447Z,15.50
2022-09-05T20:05:50.707Z,11.50
2022-09-05T20:08:31.487Z,13.07
2022-09-05T20:11:03.285Z,11.10
2022-09-05T20:13:31.774Z,12.10
2022-09-05T20:16:01.795Z,14.23
2022-09-05T20:18:40.200Z,10.00
2022-09-05T20:21:11.691Z,12.37
2022-09-05T20:23:49.228Z,12.40
2022-09-05T20:26:19.295Z,10.70
2022-09-05T20:28:54.010Z,11.40
2022-09-05T20:31:27.587Z,12.30
2022-09-05T20:33:59.183Z,11.73
2022-09-05T20:43:15.759Z,12.33
2022-09-05T20:43:25.331Z,11.90
2022-09-05T20:43:30.344Z,16.20
2022-09-05T20:45:02.700Z,16.20
2022-09-05T20:54:10.295Z,14.23
2022-09-05T20:54:18.865Z,12.30
2022-09-05T20:54:19.755Z,10.80
2022-09-05T20:56:20.354Z,13.77
2022-09-05T20:58:51.173Z,12.80
2022-09-05T21:01:23.435Z,12.10
2022-09-05T21:03:57.223Z,12.57
2022-09-05T21:06:29.491Z,14.30
2022-09-05T21:09:17.770Z,14.50
2022-09-05T21:11:54.781Z,16.23
2022-09-05T21:14:24.659Z,16.53
2022-09-05T21:17:00.657Z,12.93
2022-09-05T21:19:31.735Z,14.43
2022-09-05T21:22:04.498Z,15.00
2022-09-05T21:24:32.538Z,13.73
2022-09-05T21:27:17.345Z,12.33
2022-09-05T21:29:50.966Z,13.20
2022-09-05T21:32:37.838Z,13.43
2022-09-05T21:35:15.438Z,21.30
2022-09-05T21:37:56.566Z,13.63
2022-09-05T21:40:24.913Z,15.93
2022-09-05T21:47:34.258Z,13.17
2022-09-05T21:47:38.861Z,14.80
2022-09-05T21:48:37.096Z,13.50
2022-09-05T21:51:08.884Z,14.33
2022-09-05T21:57:55.258Z,14.20
2022-09-05T21:59:24.823Z,14.07
2022-09-05T21:59:35.419Z,14.77
2022-09-05T22:02:08.685Z,14.10
2022-09-05T22:04:41.449Z,17.00
2022-09-05T22:07:14.334Z,13.60
2022-09-05T22:09:42.461Z,16.23
2022-09-05T22:12:23.150Z,14.57
2022-09-05T22:15:26.560Z,13.93
2022-09-05T22:17:52.557Z,14.70
2022-09-05T22:20:22.911Z,15.40
2022-09-05T22:22:56.618Z,14.57
2022-09-05T22:25:28.434Z,17.77
2022-09-05T22:28:06.374Z,15.67
2022-09-05T22:30:36.639Z,15.83
2022-09-05T22:33:05.919Z,15.87
2022-09-05T22:35:34.633Z,15.47
2022-09-05T22:38:10.377Z,17.90
2022-09-05T22:40:40.311Z,20.13
2022-09-05T22:43:11.208Z,14.47
2022-09-05T22:45:41.516Z,21.27
2022-09-05T22:48:11.659Z,15.30
2022-09-05T22:50:40.558Z,16.43
2022-09-05T22:53:09.836Z,17.33
2022-09-05T22:55:40.003Z,12.77
2022-09-05T22:58:10.623Z,16.87
2022-09-05T23:00:41.600Z,19.50
2022-09-05T23:03:10.001Z,15.50
2022-09-05T23:05:38.047Z,15.27
2022-09-05T23:08:07.412Z,14.80
2022-09-05T23:10:36.685Z,15.53
2022-09-05T23:13:06.249Z,16.23
2022-09-05T23:15:34.783Z,14.67
2022-09-05T23:18:05.359Z,15.80
2022-09-05T23:20:34.182Z,17.03
2022-09-05T23:23:05.240Z,14.87
2022-09-05T23:25:34.119Z,18.80
2022-09-05T23:28:06.831Z,17.17
2022-09-05T23:30:35.507Z,16.27
2022-09-05T23:33:07.273Z,17.83
2022-09-05T23:35:35.404Z,16.90
2022-09-05T23:38:03.588Z,16.27
2022-09-05T23:40:31.659Z,18.00
2022-09-05T23:43:01.559Z,14.80
2022-09-05T23:45:30.551Z,16.87
2022-09-05T23:47:59.462Z,17.40
2022-09-05T23:50:29.522Z,17.70
2022-09-05T23:52:58.366Z,21.60
2022-09-05T23:55:27.165Z,19.50
2022-09-05T23:57:58.272Z,19.83
